sensor_id;sensor_type;location;lat;lon;timestamp;pressure;altitude;pressure_sealevel;temperature;humidity
78313;BME280;67568;47.438;21.408;2023-11-19T00:01:43;101084.06;;;3.16;81.25
78313;BME280;67568;47.438;21.408;2023-11-19T00:04:10;101085.06;;;3.33;80.99
78313;BME280;67568;47.438;21.408;2023-11-19T00:06:37;101079.56;;;3.22;81.00
78313;BME280;67568;47.438;21.408;2023-11-19T00:09:03;101072.00;;;3.05;82.89
78313;BME280;67568;47.438;21.408;2023-11-19T00:11:30;101062.47;;;2.96;83.18
78313;BME280;67568;47.438;21.408;2023-11-19T00:13:57;101074.00;;;2.98;83.03
78313;BME280;67568;47.438;21.408;2023-11-19T00:16:25;101076.41;;;3.06;82.97
78313;BME280;67568;47.438;21.408;2023-11-19T00:18:52;101075.09;;;2.97;82.55
78313;BME280;67568;47.438;21.408;2023-11-19T00:21:19;101089.75;;;3.03;82.43
78313;BME280;67568;47.438;21.408;2023-11-19T00:23:46;101085.13;;;3.27;82.37
78313;BME280;67568;47.438;21.408;2023-11-19T00:26:13;101086.09;;;3.21;82.73
78313;BME280;67568;47.438;21.408;2023-11-19T00:28:40;101087.78;;;3.22;83.27
78313;BME280;67568;47.438;21.408;2023-11-19T00:31:06;101086.81;;;3.28;82.63
78313;BME280;67568;47.438;21.408;2023-11-19T00:33:34;101086.72;;;3.34;82.02
78313;BME280;67568;47.438;21.408;2023-11-19T00:36:01;101089.94;;;3.43;82.21
78313;BME280;67568;47.438;21.408;2023-11-19T00:38:28;101094.09;;;3.34;82.41
78313;BME280;67568;47.438;21.408;2023-11-19T00:40:56;101095.88;;;3.40;82.51
78313;BME280;67568;47.438;21.408;2023-11-19T00:43:23;101091.47;;;3.27;82.79
78313;BME280;67568;47.438;21.408;2023-11-19T00:45:50;101089.81;;;3.38;82.19
78313;BME280;67568;47.438;21.408;2023-11-19T00:48:16;101084.47;;;3.55;81.82
78313;BME280;67568;47.438;21.408;2023-11-19T00:50:46;101070.97;;;3.30;82.89
78313;BME280;67568;47.438;21.408;2023-11-19T00:53:13;101075.75;;;3.34;82.91
78313;BME280;67568;47.438;21.408;2023-11-19T00:55:40;101079.66;;;3.27;81.77
78313;BME280;67568;47.438;21.408;2023-11-19T00:58:09;101082.66;;;3.25;82.05
78313;BME280;67568;47.438;21.408;2023-11-19T01:00:36;101059.19;;;3.18;81.32
78313;BME280;67568;47.438;21.408;2023-11-19T01:03:03;101067.19;;;3.31;82.41
78313;BME280;67568;47.438;21.408;2023-11-19T01:05:30;101074.56;;;3.30;81.84
78313;BME280;67568;47.438;21.408;2023-11-19T01:07:57;101081.09;;;3.29;81.48
78313;BME280;67568;47.438;21.408;2023-11-19T01:10:23;101081.38;;;3.40;81.98
78313;BME280;67568;47.438;21.408;2023-11-19T01:12:50;101069.66;;;3.21;81.46
78313;BME280;67568;47.438;21.408;2023-11-19T01:15:17;101074.19;;;3.27;80.57
78313;BME280;67568;47.438;21.408;2023-11-19T01:17:44;101064.19;;;3.21;81.46
78313;BME280;67568;47.438;21.408;2023-11-19T01:20:14;101056.56;;;3.23;81.54
78313;BME280;67568;47.438;21.408;2023-11-19T01:22:41;101057.06;;;3.31;81.18
78313;BME280;67568;47.438;21.408;2023-11-19T01:25:08;101056.72;;;3.28;81.45
78313;BME280;67568;47.438;21.408;2023-11-19T01:27:34;101071.09;;;3.35;81.50
78313;BME280;67568;47.438;21.408;2023-11-19T01:30:02;101067.53;;;3.46;80.65
78313;BME280;67568;47.438;21.408;2023-11-19T01:32:29;101062.03;;;3.23;81.92
78313;BME280;67568;47.438;21.408;2023-11-19T01:34:55;101063.97;;;3.34;81.95
78313;BME280;67568;47.438;21.408;2023-11-19T01:37:22;101065.75;;;3.40;81.63
78313;BME280;67568;47.438;21.408;2023-11-19T01:39:49;101068.03;;;3.43;81.59
78313;BME280;67568;47.438;21.408;2023-11-19T01:42:19;101068.84;;;3.32;81.51
78313;BME280;67568;47.438;21.408;2023-11-19T01:44:58;101073.50;;;3.31;81.48
78313;BME280;67568;47.438;21.408;2023-11-19T01:47:27;101095.41;;;3.31;82.25
78313;BME280;67568;47.438;21.408;2023-11-19T01:49:56;101088.63;;;3.34;81.32
78313;BME280;67568;47.438;21.408;2023-11-19T01:52:23;101069.78;;;3.14;82.53
78313;BME280;67568;47.438;21.408;2023-11-19T01:54:51;101071.69;;;3.25;81.89
78313;BME280;67568;47.438;21.408;2023-11-19T01:57:21;101071.91;;;3.24;82.30
78313;BME280;67568;47.438;21.408;2023-11-19T01:59:50;101070.88;;;3.25;82.52
78313;BME280;67568;47.438;21.408;2023-11-19T02:02:18;101076.44;;;3.30;81.89
78313;BME280;67568;47.438;21.408;2023-11-19T02:04:46;101066.56;;;3.29;81.82
78313;BME280;67568;47.438;21.408;2023-11-19T02:07:14;101071.44;;;3.27;81.70
78313;BME280;67568;47.438;21.408;2023-11-19T02:09:43;101060.38;;;3.22;82.63
78313;BME280;67568;47.438;21.408;2023-11-19T02:12:10;101054.91;;;3.22;81.75
78313;BME280;67568;47.438;21.408;2023-11-19T02:14:37;101055.97;;;3.21;82.47
78313;BME280;67568;47.438;21.408;2023-11-19T02:17:04;101044.19;;;3.20;82.25
78313;BME280;67568;47.438;21.408;2023-11-19T02:19:31;101042.13;;;3.15;82.96
78313;BME280;67568;47.438;21.408;2023-11-19T02:21:59;101038.09;;;3.18;82.44
78313;BME280;67568;47.438;21.408;2023-11-19T02:24:26;101032.28;;;3.14;82.36
78313;BME280;67568;47.438;21.408;2023-11-19T02:27:02;101030.00;;;3.11;83.36
78313;BME280;67568;47.438;21.408;2023-11-19T02:29:37;101033.09;;;3.03;83.16
78313;BME280;67568;47.438;21.408;2023-11-19T02:32:05;101036.28;;;3.00;83.19
78313;BME280;67568;47.438;21.408;2023-11-19T02:34:32;101043.91;;;2.98;83.98
78313;BME280;67568;47.438;21.408;2023-11-19T02:36:58;101039.16;;;3.05;83.63
78313;BME280;67568;47.438;21.408;2023-11-19T02:39:28;101032.88;;;3.05;83.21
78313;BME280;67568;47.438;21.408;2023-11-19T02:41:55;101028.69;;;3.02;83.12
78313;BME280;67568;47.438;21.408;2023-11-19T02:44:22;101028.69;;;3.02;83.03
78313;BME280;67568;47.438;21.408;2023-11-19T02:46:49;101037.38;;;2.99;83.58
78313;BME280;67568;47.438;21.408;2023-11-19T02:49:16;101039.00;;;2.88;84.05
78313;BME280;67568;47.438;21.408;2023-11-19T02:51:43;101050.19;;;2.99;83.39
78313;BME280;67568;47.438;21.408;2023-11-19T02:54:09;101043.91;;;2.98;83.15
78313;BME280;67568;47.438;21.408;2023-11-19T02:56:36;101042.25;;;2.97;83.41
78313;BME280;67568;47.438;21.408;2023-11-19T02:59:05;101036.28;;;3.00;83.48
78313;BME280;67568;47.438;21.408;2023-11-19T03:01:32;101041.91;;;3.05;83.41
78313;BME280;67568;47.438;21.408;2023-11-19T03:04:01;101044.16;;;3.08;83.71
78313;BME280;67568;47.438;21.408;2023-11-19T03:06:29;101027.13;;;3.06;83.72
78313;BME280;67568;47.438;21.408;2023-11-19T03:08:56;101025.00;;;3.08;82.92
78313;BME280;67568;47.438;21.408;2023-11-19T03:11:23;101023.44;;;3.12;82.58
78313;BME280;67568;47.438;21.408;2023-11-19T03:13:51;101025.22;;;3.07;83.16
78313;BME280;67568;47.438;21.408;2023-11-19T03:16:18;101016.91;;;3.02;83.64
78313;BME280;67568;47.438;21.408;2023-11-19T03:18:45;101014.72;;;2.92;83.56
78313;BME280;67568;47.438;21.408;2023-11-19T03:21:12;101017.22;;;2.82;84.77
78313;BME280;67568;47.438;21.408;2023-11-19T03:23:39;101011.50;;;2.83;84.67
78313;BME280;67568;47.438;21.408;2023-11-19T03:26:06;101005.31;;;2.76;84.58
78313;BME280;67568;47.438;21.408;2023-11-19T03:28:33;101012.91;;;2.74;84.27
78313;BME280;67568;47.438;21.408;2023-11-19T03:31:01;101003.97;;;2.67;84.50
78313;BME280;67568;47.438;21.408;2023-11-19T03:33:30;101007.31;;;2.69;84.40
78313;BME280;67568;47.438;21.408;2023-11-19T03:35:57;100993.84;;;2.67;84.55
78313;BME280;67568;47.438;21.408;2023-11-19T03:38:24;100992.66;;;2.63;84.45
78313;BME280;67568;47.438;21.408;2023-11-19T03:40:51;100990.22;;;2.43;85.61
78313;BME280;67568;47.438;21.408;2023-11-19T03:43:18;101001.19;;;2.55;85.25
78313;BME280;67568;47.438;21.408;2023-11-19T03:45:46;101004.19;;;2.54;84.88
78313;BME280;67568;47.438;21.408;2023-11-19T03:48:13;101018.81;;;2.59;84.82
78313;BME280;67568;47.438;21.408;2023-11-19T03:50:40;101010.47;;;2.54;85.47
78313;BME280;67568;47.438;21.408;2023-11-19T03:53:07;101009.88;;;2.52;85.48
78313;BME280;67568;47.438;21.408;2023-11-19T03:55:34;101009.25;;;2.50;85.11
78313;BME280;67568;47.438;21.408;2023-11-19T03:58:00;101009.25;;;2.50;85.70
78313;BME280;67568;47.438;21.408;2023-11-19T04:00:27;101005.19;;;2.41;85.70
78313;BME280;67568;47.438;21.408;2023-11-19T04:02:54;100995.31;;;2.40;85.23
78313;BME280;67568;47.438;21.408;2023-11-19T04:05:23;100989.25;;;2.38;86.04
78313;BME280;67568;47.438;21.408;2023-11-19T04:07:53;100979.00;;;2.33;85.68
78313;BME280;67568;47.438;21.408;2023-11-19T04:10:19;100976.50;;;2.32;85.73
78313;BME280;67568;47.438;21.408;2023-11-19T04:12:46;100965.06;;;2.23;86.06
78313;BME280;67568;47.438;21.408;2023-11-19T04:15:14;100967.94;;;2.28;85.65
78313;BME280;67568;47.438;21.408;2023-11-19T04:17:41;100969.25;;;2.25;86.37
78313;BME280;67568;47.438;21.408;2023-11-19T04:20:08;100973.03;;;2.24;85.95
78313;BME280;67568;47.438;21.408;2023-11-19T04:22:35;100965.69;;;2.25;85.99
78313;BME280;67568;47.438;21.408;2023-11-19T04:25:02;100957.47;;;2.25;85.81
78313;BME280;67568;47.438;21.408;2023-11-19T04:27:31;100949.97;;;2.20;85.95
78313;BME280;67568;47.438;21.408;2023-11-19T04:29:58;100966.53;;;2.07;86.37
78313;BME280;67568;47.438;21.408;2023-11-19T04:32:25;100970.25;;;2.13;86.37
78313;BME280;67568;47.438;21.408;2023-11-19T04:34:53;100959.88;;;2.03;86.12
78313;BME280;67568;47.438;21.408;2023-11-19T04:37:19;100966.84;;;1.99;86.10
78313;BME280;67568;47.438;21.408;2023-11-19T04:39:46;100968.00;;;1.91;86.64
78313;BME280;67568;47.438;21.408;2023-11-19T04:42:15;100972.03;;;1.89;87.13
78313;BME280;67568;47.438;21.408;2023-11-19T04:44:43;100966.84;;;1.99;86.73
78313;BME280;67568;47.438;21.408;2023-11-19T04:47:09;100971.41;;;2.05;86.34
78313;BME280;67568;47.438;21.408;2023-11-19T04:49:40;100967.59;;;2.06;86.40
78313;BME280;67568;47.438;21.408;2023-11-19T04:52:07;100972.16;;;2.12;86.48
78313;BME280;67568;47.438;21.408;2023-11-19T04:54:34;100972.75;;;2.14;86.11
78313;BME280;67568;47.438;21.408;2023-11-19T04:57:01;100961.88;;;2.08;86.34
78313;BME280;67568;47.438;21.408;2023-11-19T04:59:29;100965.47;;;2.08;86.16
78313;BME280;67568;47.438;21.408;2023-11-19T05:01:56;100957.75;;;2.05;86.04
78313;BME280;67568;47.438;21.408;2023-11-19T05:04:24;100962.44;;;1.98;86.34
78313;BME280;67568;47.438;21.408;2023-11-19T05:06:51;100962.09;;;1.94;86.32
78313;BME280;67568;47.438;21.408;2023-11-19T05:09:18;100954.50;;;1.96;86.70
78313;BME280;67568;47.438;21.408;2023-11-19T05:11:47;100946.06;;;1.98;86.46
78313;BME280;67568;47.438;21.408;2023-11-19T05:14:17;100947.34;;;1.95;86.63
78313;BME280;67568;47.438;21.408;2023-11-19T05:16:44;100950.53;;;1.92;86.54
78313;BME280;67568;47.438;21.408;2023-11-19T05:19:13;100947.72;;;1.99;86.56
78313;BME280;67568;47.438;21.408;2023-11-19T05:21:42;100932.97;;;1.88;86.41
78313;BME280;67568;47.438;21.408;2023-11-19T05:24:09;100938.63;;;1.87;86.68
78313;BME280;67568;47.438;21.408;2023-11-19T05:26:36;100948.22;;;1.77;87.21
78313;BME280;67568;47.438;21.408;2023-11-19T05:29:03;100947.97;;;1.79;87.09
78313;BME280;67568;47.438;21.408;2023-11-19T05:31:29;100961.16;;;1.82;87.35
78313;BME280;67568;47.438;21.408;2023-11-19T05:34:01;100964.34;;;1.97;86.88
78313;BME280;67568;47.438;21.408;2023-11-19T05:36:28;100964.25;;;2.04;86.78
78313;BME280;67568;47.438;21.408;2023-11-19T05:38:55;100947.19;;;2.09;86.52
78313;BME280;67568;47.438;21.408;2023-11-19T05:41:22;100941.00;;;2.13;86.19
78313;BME280;67568;47.438;21.408;2023-11-19T05:43:50;100934.97;;;2.11;85.78
78313;BME280;67568;47.438;21.408;2023-11-19T05:46:16;100933.88;;;2.12;86.27
78313;BME280;67568;47.438;21.408;2023-11-19T05:48:46;100942.69;;;2.14;86.63
78313;BME280;67568;47.438;21.408;2023-11-19T05:51:13;100939.84;;;2.21;85.90
78313;BME280;67568;47.438;21.408;2023-11-19T05:53:40;100950.78;;;2.21;85.71
78313;BME280;67568;47.438;21.408;2023-11-19T05:56:09;100961.34;;;2.17;86.53
78313;BME280;67568;47.438;21.408;2023-11-19T05:58:35;100966.47;;;2.14;86.90
78313;BME280;67568;47.438;21.408;2023-11-19T06:01:02;100957.09;;;2.21;86.53
78313;BME280;67568;47.438;21.408;2023-11-19T06:03:31;100950.34;;;2.36;86.40
78313;BME280;67568;47.438;21.408;2023-11-19T06:05:58;100944.56;;;2.44;85.90
78313;BME280;67568;47.438;21.408;2023-11-19T06:08:24;100948.97;;;2.45;86.54
78313;BME280;67568;47.438;21.408;2023-11-19T06:10:51;100945.22;;;2.28;86.72
78313;BME280;67568;47.438;21.408;2023-11-19T06:13:18;100944.41;;;2.39;86.31
78313;BME280;67568;47.438;21.408;2023-11-19T06:15:47;100954.56;;;2.50;86.58
78313;BME280;67568;47.438;21.408;2023-11-19T06:18:14;100961.50;;;2.22;87.02
78313;BME280;67568;47.438;21.408;2023-11-19T06:20:41;100959.09;;;2.14;87.50
78313;BME280;67568;47.438;21.408;2023-11-19T06:23:09;100976.38;;;2.27;87.21
78313;BME280;67568;47.438;21.408;2023-11-19T06:25:36;100974.41;;;2.45;86.41
78313;BME280;67568;47.438;21.408;2023-11-19T06:28:03;100973.47;;;2.52;86.60
78313;BME280;67568;47.438;21.408;2023-11-19T06:30:30;100979.31;;;2.55;86.17
78313;BME280;67568;47.438;21.408;2023-11-19T06:32:56;100973.50;;;2.63;85.86
78313;BME280;67568;47.438;21.408;2023-11-19T06:35:23;100959.34;;;2.66;85.35
78313;BME280;67568;47.438;21.408;2023-11-19T06:37:50;100964.16;;;2.83;85.95
78313;BME280;67568;47.438;21.408;2023-11-19T06:40:17;100976.75;;;2.84;86.13
78313;BME280;67568;47.438;21.408;2023-11-19T06:42:44;100972.16;;;2.96;85.26
78313;BME280;67568;47.438;21.408;2023-11-19T06:45:13;100969.06;;;3.16;84.89
78313;BME280;67568;47.438;21.408;2023-11-19T06:47:43;100976.91;;;3.24;84.46
78313;BME280;67568;47.438;21.408;2023-11-19T06:50:10;100959.63;;;3.35;84.50
78313;BME280;67568;47.438;21.408;2023-11-19T06:52:37;100954.88;;;3.54;83.32
78313;BME280;67568;47.438;21.408;2023-11-19T06:55:04;100963.88;;;3.67;83.73
78313;BME280;67568;47.438;21.408;2023-11-19T06:57:34;100974.53;;;4.03;81.82
78313;BME280;67568;47.438;21.408;2023-11-19T07:00:06;100980.91;;;4.21;82.00
78313;BME280;67568;47.438;21.408;2023-11-19T07:02:33;100996.59;;;4.37;81.13
78313;BME280;67568;47.438;21.408;2023-11-19T07:05:00;100996.53;;;4.49;81.33
78313;BME280;67568;47.438;21.408;2023-11-19T07:07:27;100999.22;;;4.61;80.08
78313;BME280;67568;47.438;21.408;2023-11-19T07:09:53;101010.78;;;4.63;80.58
78313;BME280;67568;47.438;21.408;2023-11-19T07:12:20;100995.25;;;4.68;79.75
78313;BME280;67568;47.438;21.408;2023-11-19T07:14:47;101013.16;;;5.05;78.52
78313;BME280;67568;47.438;21.408;2023-11-19T07:17:13;101003.75;;;5.34;78.33
78313;BME280;67568;47.438;21.408;2023-11-19T07:19:46;101005.84;;;5.44;76.74
78313;BME280;67568;47.438;21.408;2023-11-19T07:22:14;100996.88;;;5.93;75.49
78313;BME280;67568;47.438;21.408;2023-11-19T07:24:40;101000.22;;;6.17;74.88
78313;BME280;67568;47.438;21.408;2023-11-19T07:27:07;100994.22;;;6.20;76.30
78313;BME280;67568;47.438;21.408;2023-11-19T07:29:35;100983.09;;;6.10;76.00
78313;BME280;67568;47.438;21.408;2023-11-19T07:32:07;100976.69;;;6.04;76.06
78313;BME280;67568;47.438;21.408;2023-11-19T07:34:37;100963.50;;;6.06;76.32
78313;BME280;67568;47.438;21.408;2023-11-19T07:37:04;100964.16;;;6.13;75.62
78313;BME280;67568;47.438;21.408;2023-11-19T07:39:31;100965.78;;;5.70;74.46
78313;BME280;67568;47.438;21.408;2023-11-19T07:41:58;100965.31;;;5.56;76.12
78313;BME280;67568;47.438;21.408;2023-11-19T07:44:25;100973.72;;;5.11;76.72
78313;BME280;67568;47.438;21.408;2023-11-19T07:46:52;100972.56;;;5.24;76.67
78313;BME280;67568;47.438;21.408;2023-11-19T07:49:19;100978.47;;;5.32;75.73
78313;BME280;67568;47.438;21.408;2023-11-19T07:51:46;100978.06;;;5.24;76.88
78313;BME280;67568;47.438;21.408;2023-11-19T07:54:13;100979.78;;;5.30;76.68
78313;BME280;67568;47.438;21.408;2023-11-19T07:56:40;100967.69;;;5.31;77.42
78313;BME280;67568;47.438;21.408;2023-11-19T07:59:06;100967.34;;;5.44;77.37
78313;BME280;67568;47.438;21.408;2023-11-19T08:01:38;100980.72;;;5.57;75.74
78313;BME280;67568;47.438;21.408;2023-11-19T08:04:05;100983.09;;;5.71;74.72
78313;BME280;67568;47.438;21.408;2023-11-19T08:06:35;100978.16;;;5.51;75.56
78313;BME280;67568;47.438;21.408;2023-11-19T08:09:02;100971.53;;;5.91;74.00
78313;BME280;67568;47.438;21.408;2023-11-19T08:11:28;100964.06;;;5.86;72.99
78313;BME280;67568;47.438;21.408;2023-11-19T08:13:55;100956.88;;;6.02;71.78
78313;BME280;67568;47.438;21.408;2023-11-19T08:16:22;100963.06;;;5.92;72.08
78313;BME280;67568;47.438;21.408;2023-11-19T08:18:50;100954.38;;;5.39;72.71
78313;BME280;67568;47.438;21.408;2023-11-19T08:21:17;100952.22;;;5.25;73.64
78313;BME280;67568;47.438;21.408;2023-11-19T08:23:43;100942.88;;;5.43;71.89
78313;BME280;67568;47.438;21.408;2023-11-19T08:26:10;100936.53;;;5.42;73.08
78313;BME280;67568;47.438;21.408;2023-11-19T08:28:40;100934.69;;;5.48;71.37
78313;BME280;67568;47.438;21.408;2023-11-19T08:31:10;100921.28;;;5.51;71.55
78313;BME280;67568;47.438;21.408;2023-11-19T08:33:37;100921.66;;;5.60;71.45
78313;BME280;67568;47.438;21.408;2023-11-19T08:36:04;100918.66;;;5.61;70.51
78313;BME280;67568;47.438;21.408;2023-11-19T08:38:31;100926.94;;;4.89;70.18
78313;BME280;67568;47.438;21.408;2023-11-19T08:41:00;100928.22;;;4.98;71.47
78313;BME280;67568;47.438;21.408;2023-11-19T08:43:27;100910.41;;;5.39;69.72
78313;BME280;67568;47.438;21.408;2023-11-19T08:45:54;100897.41;;;5.35;71.06
78313;BME280;67568;47.438;21.408;2023-11-19T08:48:21;100888.53;;;5.28;70.93
78313;BME280;67568;47.438;21.408;2023-11-19T08:50:48;100911.66;;;4.93;72.58
78313;BME280;67568;47.438;21.408;2023-11-19T08:53:15;100907.75;;;5.28;71.55
78313;BME280;67568;47.438;21.408;2023-11-19T08:55:42;100907.69;;;5.23;71.89
78313;BME280;67568;47.438;21.408;2023-11-19T08:58:09;100908.09;;;5.31;72.26
78313;BME280;67568;47.438;21.408;2023-11-19T09:00:35;100931.53;;;5.00;72.45
78313;BME280;67568;47.438;21.408;2023-11-19T09:03:02;100945.03;;;5.40;71.50
78313;BME280;67568;47.438;21.408;2023-11-19T09:05:30;100969.56;;;5.86;70.77
78313;BME280;67568;47.438;21.408;2023-11-19T09:07:57;100949.09;;;6.48;68.26
78313;BME280;67568;47.438;21.408;2023-11-19T09:10:24;100921.75;;;7.48;66.60
78313;BME280;67568;47.438;21.408;2023-11-19T09:12:51;100938.56;;;8.04;63.83
78313;BME280;67568;47.438;21.408;2023-11-19T09:15:17;100929.34;;;8.67;62.99
78313;BME280;67568;47.438;21.408;2023-11-19T09:17:44;100897.28;;;8.55;63.31
78313;BME280;67568;47.438;21.408;2023-11-19T09:20:11;100918.19;;;8.05;62.15
78313;BME280;67568;47.438;21.408;2023-11-19T09:22:38;100920.31;;;7.93;64.39
78313;BME280;67568;47.438;21.408;2023-11-19T09:25:05;100905.25;;;7.53;65.89
78313;BME280;67568;47.438;21.408;2023-11-19T09:27:32;100877.13;;;7.46;64.85
78313;BME280;67568;47.438;21.408;2023-11-19T09:29:59;100863.91;;;7.01;66.97
78313;BME280;67568;47.438;21.408;2023-11-19T09:32:26;100881.56;;;6.67;66.26
78313;BME280;67568;47.438;21.408;2023-11-19T09:34:53;100875.66;;;6.53;68.25
78313;BME280;67568;47.438;21.408;2023-11-19T09:37:19;100867.16;;;6.28;67.18
78313;BME280;67568;47.438;21.408;2023-11-19T09:39:48;100877.88;;;6.24;68.80
78313;BME280;67568;47.438;21.408;2023-11-19T09:42:15;100881.22;;;6.26;67.34
78313;BME280;67568;47.438;21.408;2023-11-19T09:44:42;100878.19;;;6.28;69.44
78313;BME280;67568;47.438;21.408;2023-11-19T09:47:11;100863.13;;;6.36;68.24
78313;BME280;67568;47.438;21.408;2023-11-19T09:49:40;100865.31;;;6.06;68.11
78313;BME280;67568;47.438;21.408;2023-11-19T09:52:07;100870.13;;;5.94;69.64
78313;BME280;67568;47.438;21.408;2023-11-19T09:54:34;100875.44;;;6.01;69.44
78313;BME280;67568;47.438;21.408;2023-11-19T09:57:04;100866.69;;;6.04;70.21
78313;BME280;67568;47.438;21.408;2023-11-19T09:59:31;100863.34;;;6.02;70.17
78313;BME280;67568;47.438;21.408;2023-11-19T10:01:59;100868.31;;;6.05;70.37
78313;BME280;67568;47.438;21.408;2023-11-19T10:04:30;100861.53;;;6.13;69.29
78313;BME280;67568;47.438;21.408;2023-11-19T10:06:57;100865.13;;;6.13;69.93
78313;BME280;67568;47.438;21.408;2023-11-19T10:09:24;100863.34;;;6.02;68.02
78313;BME280;67568;47.438;21.408;2023-11-19T10:11:51;100861.25;;;6.14;69.10
78313;BME280;67568;47.438;21.408;2023-11-19T10:14:22;100866.22;;;6.17;69.23
78313;BME280;67568;47.438;21.408;2023-11-19T10:16:50;100865.34;;;6.39;69.46
78313;BME280;67568;47.438;21.408;2023-11-19T10:19:19;100865.81;;;6.58;69.69
78313;BME280;67568;47.438;21.408;2023-11-19T10:21:49;100867.69;;;6.57;67.94
78313;BME280;67568;47.438;21.408;2023-11-19T10:24:16;100857.25;;;6.59;68.18
78313;BME280;67568;47.438;21.408;2023-11-19T10:26:52;100871.03;;;6.59;68.52
78313;BME280;67568;47.438;21.408;2023-11-19T10:29:20;100875.84;;;6.42;69.52
78313;BME280;67568;47.438;21.408;2023-11-19T10:31:56;100869.84;;;6.50;69.72
78313;BME280;67568;47.438;21.408;2023-11-19T10:34:26;100875.94;;;6.52;69.88
78313;BME280;67568;47.438;21.408;2023-11-19T10:36:53;100876.72;;;6.47;69.57
78313;BME280;67568;47.438;21.408;2023-11-19T10:39:20;100868.09;;;6.39;69.46
78313;BME280;67568;47.438;21.408;2023-11-19T10:41:53;100865.41;;;6.44;69.62
78313;BME280;67568;47.438;21.408;2023-11-19T10:44:33;100845.56;;;6.42;68.82
78313;BME280;67568;47.438;21.408;2023-11-19T10:46:59;100850.06;;;5.94;71.48
78313;BME280;67568;47.438;21.408;2023-11-19T10:49:26;100849.13;;;6.10;70.31
78313;BME280;67568;47.438;21.408;2023-11-19T10:51:53;100838.72;;;5.90;71.91
78313;BME280;67568;47.438;21.408;2023-11-19T10:54:23;100836.53;;;5.92;71.12
78313;BME280;67568;47.438;21.408;2023-11-19T10:56:59;100831.81;;;5.88;70.95
78313;BME280;67568;47.438;21.408;2023-11-19T10:59:28;100821.34;;;5.84;71.87
78313;BME280;67568;47.438;21.408;2023-11-19T11:02:03;100817.41;;;5.75;71.09
78313;BME280;67568;47.438;21.408;2023-11-19T11:04:33;100822.91;;;5.80;71.08
78313;BME280;67568;47.438;21.408;2023-11-19T11:07:07;100832.38;;;5.90;71.88
78313;BME280;67568;47.438;21.408;2023-11-19T11:09:35;100819.19;;;5.92;71.42
78313;BME280;67568;47.438;21.408;2023-11-19T11:12:03;100830.84;;;5.99;70.45
78313;BME280;67568;47.438;21.408;2023-11-19T11:14:32;100843.94;;;5.92;72.20
78313;BME280;67568;47.438;21.408;2023-11-19T11:17:02;100839.72;;;6.06;70.85
78313;BME280;67568;47.438;21.408;2023-11-19T11:19:29;100823.13;;;5.96;72.08
78313;BME280;67568;47.438;21.408;2023-11-19T11:21:58;100830.09;;;5.81;72.69
78313;BME280;67568;47.438;21.408;2023-11-19T11:24:37;100819.94;;;5.82;71.84
78313;BME280;67568;47.438;21.408;2023-11-19T11:28:20;100823.13;;;5.96;71.80
78313;BME280;67568;47.438;21.408;2023-11-19T11:30:49;100805.22;;;5.93;72.97
78313;BME280;67568;47.438;21.408;2023-11-19T11:33:32;100808.16;;;5.86;71.60
78313;BME280;67568;47.438;21.408;2023-11-19T11:38:37;100790.94;;;5.96;72.29
78313;BME280;67568;47.438;21.408;2023-11-19T11:41:23;100787.38;;;5.96;72.50
78313;BME280;67568;47.438;21.408;2023-11-19T11:43:55;100779.25;;;5.84;73.55
78313;BME280;67568;47.438;21.408;2023-11-19T11:46:54;100785.00;;;5.82;73.08
78313;BME280;67568;47.438;21.408;2023-11-19T11:49:25;100780.38;;;5.88;73.37
78313;BME280;67568;47.438;21.408;2023-11-19T11:51:59;100779.56;;;5.88;73.61
78313;BME280;67568;47.438;21.408;2023-11-19T11:54:29;100783.09;;;5.83;73.86
78313;BME280;67568;47.438;21.408;2023-11-19T11:57:14;100775.69;;;5.83;72.47
78313;BME280;67568;47.438;21.408;2023-11-19T11:59:48;100772.16;;;5.61;72.53
78313;BME280;67568;47.438;21.408;2023-11-19T12:02:22;100775.78;;;5.67;73.65
78313;BME280;67568;47.438;21.408;2023-11-19T12:04:51;100772.75;;;5.68;73.04
78313;BME280;67568;47.438;21.408;2023-11-19T12:07:24;100762.00;;;5.61;73.58
78313;BME280;67568;47.438;21.408;2023-11-19T12:09:53;100762.44;;;5.53;72.45
78313;BME280;67568;47.438;21.408;2023-11-19T12:12:27;100762.66;;;5.47;74.09
78313;BME280;67568;47.438;21.408;2023-11-19T12:15:01;100764.56;;;5.46;73.16
78313;BME280;67568;47.438;21.408;2023-11-19T12:20:04;100764.19;;;5.37;74.98
78313;BME280;67568;47.438;21.408;2023-11-19T12:22:32;100773.91;;;5.45;74.67
78313;BME280;67568;47.438;21.408;2023-11-19T12:25:00;100772.09;;;5.56;75.66
78313;BME280;67568;47.438;21.408;2023-11-19T12:27:28;100763.06;;;5.60;74.75
78313;BME280;67568;47.438;21.408;2023-11-19T12:29:58;100765.88;;;5.66;75.46
78313;BME280;67568;47.438;21.408;2023-11-19T12:32:24;100756.28;;;5.68;75.58
78313;BME280;67568;47.438;21.408;2023-11-19T12:34:51;100762.88;;;5.67;74.89
78313;BME280;67568;47.438;21.408;2023-11-19T12:37:18;100769.19;;;5.68;75.12
78313;BME280;67568;47.438;21.408;2023-11-19T12:39:45;100759.84;;;5.69;75.28
78313;BME280;67568;47.438;21.408;2023-11-19T12:42:12;100757.09;;;5.69;75.58
78313;BME280;67568;47.438;21.408;2023-11-19T12:44:39;100754.56;;;5.62;76.62
78313;BME280;67568;47.438;21.408;2023-11-19T12:47:06;100746.91;;;5.64;77.08
78313;BME280;67568;47.438;21.408;2023-11-19T12:49:34;100750.16;;;5.61;76.22
78313;BME280;67568;47.438;21.408;2023-11-19T12:52:01;100737.25;;;5.61;77.37
78313;BME280;67568;47.438;21.408;2023-11-19T12:54:37;100722.34;;;5.30;76.40
78313;BME280;67568;47.438;21.408;2023-11-19T12:57:04;100713.81;;;5.27;76.99
78313;BME280;67568;47.438;21.408;2023-11-19T12:59:31;100708.63;;;5.30;78.51
78313;BME280;67568;47.438;21.408;2023-11-19T13:01:58;100702.59;;;5.33;78.26